sensor_id;sensor_type;location;lat;lon;timestamp;P1;durP1;ratioP1;P2;durP2;ratioP2
46158;SDS011;31888;44.512;26.104;2023-04-15T00:01:25;10.38;;;5.15;;
46158;SDS011;31888;44.512;26.104;2023-04-15T00:03:50;7.50;;;4.38;;
46158;SDS011;31888;44.512;26.104;2023-04-15T00:06:16;9.38;;;4.22;;
46158;SDS011;31888;44.512;26.104;2023-04-15T00:08:40;10.48;;;4.28;;
46158;SDS011;31888;44.512;26.104;2023-04-15T00:11:05;8.40;;;4.20;;
46158;SDS011;31888;44.512;26.104;2023-04-15T00:13:29;5.80;;;3.97;;
46158;SDS011;31888;44.512;26.104;2023-04-15T00:15:58;8.05;;;4.72;;
46158;SDS011;31888;44.512;26.104;2023-04-15T00:18:23;7.45;;;4.00;;
46158;SDS011;31888;44.512;26.104;2023-04-15T00:20:48;8.70;;;4.97;;
46158;SDS011;31888;44.512;26.104;2023-04-15T00:23:12;7.63;;;4.25;;
46158;SDS011;31888;44.512;26.104;2023-04-15T00:25:37;6.75;;;4.18;;
46158;SDS011;31888;44.512;26.104;2023-04-15T00:28:01;5.88;;;4.13;;
46158;SDS011;31888;44.512;26.104;2023-04-15T00:30:26;9.27;;;3.70;;
46158;SDS011;31888;44.512;26.104;2023-04-15T00:32:52;8.00;;;3.90;;
46158;SDS011;31888;44.512;26.104;2023-04-15T00:35:17;8.02;;;4.32;;
46158;SDS011;31888;44.512;26.104;2023-04-15T00:37:42;7.68;;;4.60;;
46158;SDS011;31888;44.512;26.104;2023-04-15T00:40:09;13.20;;;3.83;;
46158;SDS011;31888;44.512;26.104;2023-04-15T00:42:36;9.20;;;4.25;;
46158;SDS011;31888;44.512;26.104;2023-04-15T00:45:02;12.25;;;4.13;;
46158;SDS011;31888;44.512;26.104;2023-04-15T00:47:27;8.43;;;4.20;;
46158;SDS011;31888;44.512;26.104;2023-04-15T00:49:54;6.55;;;4.07;;
46158;SDS011;31888;44.512;26.104;2023-04-15T00:52:19;7.18;;;4.25;;
46158;SDS011;31888;44.512;26.104;2023-04-15T00:54:45;7.70;;;4.10;;
46158;SDS011;31888;44.512;26.104;2023-04-15T00:57:10;6.88;;;4.18;;
46158;SDS011;31888;44.512;26.104;2023-04-15T00:59:35;8.77;;;4.10;;
46158;SDS011;31888;44.512;26.104;2023-04-15T01:01:59;9.63;;;4.70;;
46158;SDS011;31888;44.512;26.104;2023-04-15T01:04:24;6.28;;;3.97;;
46158;SDS011;31888;44.512;26.104;2023-04-15T01:06:50;8.38;;;4.20;;
46158;SDS011;31888;44.512;26.104;2023-04-15T01:09:15;8.13;;;4.05;;
46158;SDS011;31888;44.512;26.104;2023-04-15T01:11:40;7.03;;;3.67;;
46158;SDS011;31888;44.512;26.104;2023-04-15T01:14:05;10.63;;;4.32;;
46158;SDS011;31888;44.512;26.104;2023-04-15T01:16:32;8.70;;;3.75;;
46158;SDS011;31888;44.512;26.104;2023-04-15T01:18:56;10.02;;;3.63;;
46158;SDS011;31888;44.512;26.104;2023-04-15T01:21:22;9.98;;;4.13;;
46158;SDS011;31888;44.512;26.104;2023-04-15T01:23:48;5.22;;;3.40;;
46158;SDS011;31888;44.512;26.104;2023-04-15T01:26:17;7.18;;;3.83;;
46158;SDS011;31888;44.512;26.104;2023-04-15T01:28:43;10.95;;;4.00;;
46158;SDS011;31888;44.512;26.104;2023-04-15T01:31:07;7.53;;;5.15;;
46158;SDS011;31888;44.512;26.104;2023-04-15T01:33:33;9.35;;;5.32;;
46158;SDS011;31888;44.512;26.104;2023-04-15T01:36:16;7.57;;;4.57;;
46158;SDS011;31888;44.512;26.104;2023-04-15T01:38:41;10.95;;;4.78;;
46158;SDS011;31888;44.512;26.104;2023-04-15T01:41:06;10.02;;;5.50;;
46158;SDS011;31888;44.512;26.104;2023-04-15T01:43:33;14.15;;;6.07;;
46158;SDS011;31888;44.512;26.104;2023-04-15T01:46:00;11.35;;;6.25;;
46158;SDS011;31888;44.512;26.104;2023-04-15T01:48:27;10.35;;;6.25;;
46158;SDS011;31888;44.512;26.104;2023-04-15T01:50:53;22.50;;;6.32;;
46158;SDS011;31888;44.512;26.104;2023-04-15T01:53:21;12.50;;;6.13;;
46158;SDS011;31888;44.512;26.104;2023-04-15T01:55:46;14.50;;;6.43;;
46158;SDS011;31888;44.512;26.104;2023-04-15T01:58:12;14.07;;;6.90;;
46158;SDS011;31888;44.512;26.104;2023-04-15T02:00:41;13.07;;;6.28;;
46158;SDS011;31888;44.512;26.104;2023-04-15T02:03:06;11.70;;;7.00;;
46158;SDS011;31888;44.512;26.104;2023-04-15T02:05:32;12.63;;;7.20;;
46158;SDS011;31888;44.512;26.104;2023-04-15T02:08:00;9.98;;;6.85;;
46158;SDS011;31888;44.512;26.104;2023-04-15T02:10:26;16.10;;;8.43;;
46158;SDS011;31888;44.512;26.104;2023-04-15T02:12:52;14.13;;;7.32;;
46158;SDS011;31888;44.512;26.104;2023-04-15T02:15:18;12.65;;;7.18;;
46158;SDS011;31888;44.512;26.104;2023-04-15T02:17:47;11.70;;;7.38;;
46158;SDS011;31888;44.512;26.104;2023-04-15T02:20:13;15.88;;;7.22;;
46158;SDS011;31888;44.512;26.104;2023-04-15T02:22:39;11.65;;;6.70;;
46158;SDS011;31888;44.512;26.104;2023-04-15T02:25:06;12.13;;;6.47;;
46158;SDS011;31888;44.512;26.104;2023-04-15T02:27:32;12.73;;;6.07;;
46158;SDS011;31888;44.512;26.104;2023-04-15T02:29:59;9.98;;;5.55;;
46158;SDS011;31888;44.512;26.104;2023-04-15T02:32:25;9.18;;;5.55;;
46158;SDS011;31888;44.512;26.104;2023-04-15T02:34:53;9.27;;;5.15;;
46158;SDS011;31888;44.512;26.104;2023-04-15T02:37:19;12.48;;;5.65;;
46158;SDS011;31888;44.512;26.104;2023-04-15T02:39:46;9.18;;;5.00;;
46158;SDS011;31888;44.512;26.104;2023-04-15T02:42:11;8.95;;;5.03;;
46158;SDS011;31888;44.512;26.104;2023-04-15T02:44:37;10.25;;;5.57;;
46158;SDS011;31888;44.512;26.104;2023-04-15T02:47:03;7.47;;;4.97;;
46158;SDS011;31888;44.512;26.104;2023-04-15T02:49:30;9.65;;;5.22;;
46158;SDS011;31888;44.512;26.104;2023-04-15T02:51:57;8.60;;;4.78;;
46158;SDS011;31888;44.512;26.104;2023-04-15T02:54:23;12.73;;;5.47;;
46158;SDS011;31888;44.512;26.104;2023-04-15T02:56:51;8.02;;;5.07;;
46158;SDS011;31888;44.512;26.104;2023-04-15T02:59:18;9.30;;;5.47;;
46158;SDS011;31888;44.512;26.104;2023-04-15T03:01:44;10.07;;;4.90;;
46158;SDS011;31888;44.512;26.104;2023-04-15T03:04:10;10.00;;;4.63;;
46158;SDS011;31888;44.512;26.104;2023-04-15T03:06:36;9.15;;;4.53;;
46158;SDS011;31888;44.512;26.104;2023-04-15T03:09:06;10.57;;;4.22;;
46158;SDS011;31888;44.512;26.104;2023-04-15T03:11:34;8.63;;;4.18;;
46158;SDS011;31888;44.512;26.104;2023-04-15T03:14:05;9.77;;;4.22;;
46158;SDS011;31888;44.512;26.104;2023-04-15T03:16:33;7.90;;;4.60;;
46158;SDS011;31888;44.512;26.104;2023-04-15T03:18:59;7.18;;;4.13;;
46158;SDS011;31888;44.512;26.104;2023-04-15T03:21:25;8.60;;;4.75;;
46158;SDS011;31888;44.512;26.104;2023-04-15T03:23:51;8.80;;;4.40;;
46158;SDS011;31888;44.512;26.104;2023-04-15T03:26:24;11.75;;;4.60;;
46158;SDS011;31888;44.512;26.104;2023-04-15T03:28:54;8.75;;;4.03;;
46158;SDS011;31888;44.512;26.104;2023-04-15T03:31:20;13.32;;;4.20;;
46158;SDS011;31888;44.512;26.104;2023-04-15T03:33:46;11.25;;;3.95;;
46158;SDS011;31888;44.512;26.104;2023-04-15T03:36:12;7.50;;;4.22;;
46158;SDS011;31888;44.512;26.104;2023-04-15T03:38:38;7.00;;;3.63;;
46158;SDS011;31888;44.512;26.104;2023-04-15T03:41:04;9.73;;;4.10;;
46158;SDS011;31888;44.512;26.104;2023-04-15T03:43:31;7.55;;;4.15;;
46158;SDS011;31888;44.512;26.104;2023-04-15T03:45:57;8.93;;;4.55;;
46158;SDS011;31888;44.512;26.104;2023-04-15T03:48:24;7.95;;;4.03;;
46158;SDS011;31888;44.512;26.104;2023-04-15T03:50:50;7.18;;;4.50;;
46158;SDS011;31888;44.512;26.104;2023-04-15T03:53:16;11.48;;;4.07;;
46158;SDS011;31888;44.512;26.104;2023-04-15T03:55:41;6.60;;;4.20;;
46158;SDS011;31888;44.512;26.104;2023-04-15T03:58:07;10.52;;;3.85;;
46158;SDS011;31888;44.512;26.104;2023-04-15T04:00:37;8.35;;;4.05;;
46158;SDS011;31888;44.512;26.104;2023-04-15T04:03:02;7.15;;;4.25;;
46158;SDS011;31888;44.512;26.104;2023-04-15T04:05:28;8.82;;;4.20;;
46158;SDS011;31888;44.512;26.104;2023-04-15T04:07:54;5.72;;;3.83;;
46158;SDS011;31888;44.512;26.104;2023-04-15T04:10:20;8.23;;;4.30;;
46158;SDS011;31888;44.512;26.104;2023-04-15T04:12:46;6.95;;;3.85;;
46158;SDS011;31888;44.512;26.104;2023-04-15T04:15:11;7.63;;;3.60;;
46158;SDS011;31888;44.512;26.104;2023-04-15T04:17:39;7.13;;;4.03;;
46158;SDS011;31888;44.512;26.104;2023-04-15T04:20:05;7.30;;;3.58;;
46158;SDS011;31888;44.512;26.104;2023-04-15T04:22:35;8.65;;;4.10;;
46158;SDS011;31888;44.512;26.104;2023-04-15T04:27:27;8.57;;;4.10;;
46158;SDS011;31888;44.512;26.104;2023-04-15T04:29:53;5.20;;;3.67;;
46158;SDS011;31888;44.512;26.104;2023-04-15T04:32:18;8.60;;;4.07;;
46158;SDS011;31888;44.512;26.104;2023-04-15T04:34:45;5.70;;;3.92;;
46158;SDS011;31888;44.512;26.104;2023-04-15T04:37:11;7.13;;;4.03;;
46158;SDS011;31888;44.512;26.104;2023-04-15T04:39:37;7.20;;;4.03;;
46158;SDS011;31888;44.512;26.104;2023-04-15T04:42:03;8.93;;;3.70;;
46158;SDS011;31888;44.512;26.104;2023-04-15T04:44:29;5.95;;;4.00;;
46158;SDS011;31888;44.512;26.104;2023-04-15T04:46:55;8.25;;;4.00;;
46158;SDS011;31888;44.512;26.104;2023-04-15T04:49:21;8.75;;;4.65;;
46158;SDS011;31888;44.512;26.104;2023-04-15T04:51:48;7.63;;;4.05;;
46158;SDS011;31888;44.512;26.104;2023-04-15T04:54:14;7.60;;;4.20;;
46158;SDS011;31888;44.512;26.104;2023-04-15T04:56:40;5.90;;;3.33;;
46158;SDS011;31888;44.512;26.104;2023-04-15T04:59:06;9.98;;;6.38;;
46158;SDS011;31888;44.512;26.104;2023-04-15T05:01:32;15.85;;;8.05;;
46158;SDS011;31888;44.512;26.104;2023-04-15T05:03:58;10.20;;;7.43;;
46158;SDS011;31888;44.512;26.104;2023-04-15T05:06:24;9.48;;;5.93;;
46158;SDS011;31888;44.512;26.104;2023-04-15T05:08:51;9.32;;;5.28;;
46158;SDS011;31888;44.512;26.104;2023-04-15T05:11:17;11.20;;;5.78;;
46158;SDS011;31888;44.512;26.104;2023-04-15T05:13:43;7.13;;;4.55;;
46158;SDS011;31888;44.512;26.104;2023-04-15T05:16:09;6.82;;;4.00;;
46158;SDS011;31888;44.512;26.104;2023-04-15T05:18:35;7.07;;;4.05;;
46158;SDS011;31888;44.512;26.104;2023-04-15T05:21:01;15.02;;;4.57;;
46158;SDS011;31888;44.512;26.104;2023-04-15T05:23:27;8.30;;;4.57;;
46158;SDS011;31888;44.512;26.104;2023-04-15T05:25:54;10.75;;;4.75;;
46158;SDS011;31888;44.512;26.104;2023-04-15T05:28:19;9.30;;;4.72;;
46158;SDS011;31888;44.512;26.104;2023-04-15T05:30:45;8.95;;;4.43;;
46158;SDS011;31888;44.512;26.104;2023-04-15T05:33:11;6.10;;;3.50;;
46158;SDS011;31888;44.512;26.104;2023-04-15T05:35:37;7.70;;;3.65;;
46158;SDS011;31888;44.512;26.104;2023-04-15T05:38:02;7.47;;;3.22;;
46158;SDS011;31888;44.512;26.104;2023-04-15T05:40:28;6.32;;;3.20;;
46158;SDS011;31888;44.512;26.104;2023-04-15T05:42:56;8.43;;;3.78;;
46158;SDS011;31888;44.512;26.104;2023-04-15T05:45:22;8.77;;;4.32;;
46158;SDS011;31888;44.512;26.104;2023-04-15T05:47:47;6.07;;;3.65;;
46158;SDS011;31888;44.512;26.104;2023-04-15T05:50:17;8.77;;;3.70;;
46158;SDS011;31888;44.512;26.104;2023-04-15T05:52:43;7.28;;;4.00;;
46158;SDS011;31888;44.512;26.104;2023-04-15T05:55:08;11.15;;;3.58;;
46158;SDS011;31888;44.512;26.104;2023-04-15T05:57:34;12.55;;;3.90;;
46158;SDS011;31888;44.512;26.104;2023-04-15T06:00:02;7.25;;;3.75;;
46158;SDS011;31888;44.512;26.104;2023-04-15T06:02:32;6.47;;;3.70;;
46158;SDS011;31888;44.512;26.104;2023-04-15T06:04:58;11.27;;;4.70;;
46158;SDS011;31888;44.512;26.104;2023-04-15T06:07:24;8.93;;;3.83;;
46158;SDS011;31888;44.512;26.104;2023-04-15T06:09:50;8.05;;;4.13;;
46158;SDS011;31888;44.512;26.104;2023-04-15T06:12:15;8.90;;;3.80;;
46158;SDS011;31888;44.512;26.104;2023-04-15T06:14:41;7.82;;;3.65;;
46158;SDS011;31888;44.512;26.104;2023-04-15T06:17:08;10.38;;;4.45;;
46158;SDS011;31888;44.512;26.104;2023-04-15T06:19:34;8.90;;;4.30;;
46158;SDS011;31888;44.512;26.104;2023-04-15T06:22:00;6.68;;;3.90;;
46158;SDS011;31888;44.512;26.104;2023-04-15T06:24:26;7.90;;;4.45;;
46158;SDS011;31888;44.512;26.104;2023-04-15T06:26:52;11.02;;;4.50;;
46158;SDS011;31888;44.512;26.104;2023-04-15T06:29:17;10.20;;;4.18;;
46158;SDS011;31888;44.512;26.104;2023-04-15T06:31:43;8.43;;;4.40;;
46158;SDS011;31888;44.512;26.104;2023-04-15T06:34:13;8.85;;;4.30;;
46158;SDS011;31888;44.512;26.104;2023-04-15T06:36:38;14.63;;;4.57;;
46158;SDS011;31888;44.512;26.104;2023-04-15T06:39:04;10.35;;;4.60;;
46158;SDS011;31888;44.512;26.104;2023-04-15T06:41:30;9.48;;;5.07;;
46158;SDS011;31888;44.512;26.104;2023-04-15T06:43:56;10.40;;;4.25;;
46158;SDS011;31888;44.512;26.104;2023-04-15T06:46:22;8.85;;;5.05;;
46158;SDS011;31888;44.512;26.104;2023-04-15T06:48:48;9.70;;;4.82;;
46158;SDS011;31888;44.512;26.104;2023-04-15T06:51:16;9.27;;;4.78;;
46158;SDS011;31888;44.512;26.104;2023-04-15T06:53:42;8.80;;;4.40;;
46158;SDS011;31888;44.512;26.104;2023-04-15T06:56:07;6.82;;;4.20;;
46158;SDS011;31888;44.512;26.104;2023-04-15T06:58:33;10.48;;;4.35;;
46158;SDS011;31888;44.512;26.104;2023-04-15T07:00:59;8.00;;;4.13;;
46158;SDS011;31888;44.512;26.104;2023-04-15T07:03:25;6.70;;;4.38;;
46158;SDS011;31888;44.512;26.104;2023-04-15T07:05:51;11.73;;;4.65;;
46158;SDS011;31888;44.512;26.104;2023-04-15T07:08:19;7.85;;;4.40;;
46158;SDS011;31888;44.512;26.104;2023-04-15T07:10:45;7.43;;;3.97;;
46158;SDS011;31888;44.512;26.104;2023-04-15T07:13:11;6.78;;;3.28;;
46158;SDS011;31888;44.512;26.104;2023-04-15T07:15:37;5.60;;;2.80;;
46158;SDS011;31888;44.512;26.104;2023-04-15T07:18:02;6.45;;;2.95;;
46158;SDS011;31888;44.512;26.104;2023-04-15T07:20:28;6.43;;;3.08;;
46158;SDS011;31888;44.512;26.104;2023-04-15T07:22:54;10.50;;;3.13;;
46158;SDS011;31888;44.512;26.104;2023-04-15T07:25:21;8.57;;;3.40;;
46158;SDS011;31888;44.512;26.104;2023-04-15T07:27:47;8.00;;;3.42;;
46158;SDS011;31888;44.512;26.104;2023-04-15T07:30:13;5.53;;;2.97;;
46158;SDS011;31888;44.512;26.104;2023-04-15T07:32:39;4.45;;;3.30;;
46158;SDS011;31888;44.512;26.104;2023-04-15T07:35:06;6.45;;;3.17;;
46158;SDS011;31888;44.512;26.104;2023-04-15T07:37:33;6.75;;;3.10;;
46158;SDS011;31888;44.512;26.104;2023-04-15T07:39:59;6.93;;;3.92;;
46158;SDS011;31888;44.512;26.104;2023-04-15T07:42:26;7.32;;;2.97;;
46158;SDS011;31888;44.512;26.104;2023-04-15T07:44:52;10.60;;;3.25;;
46158;SDS011;31888;44.512;26.104;2023-04-15T07:47:18;7.82;;;3.15;;
46158;SDS011;31888;44.512;26.104;2023-04-15T07:49:44;9.20;;;3.22;;
46158;SDS011;31888;44.512;26.104;2023-04-15T07:52:09;11.15;;;4.30;;
46158;SDS011;31888;44.512;26.104;2023-04-15T07:54:35;9.07;;;3.63;;
46158;SDS011;31888;44.512;26.104;2023-04-15T07:57:01;6.88;;;3.88;;
46158;SDS011;31888;44.512;26.104;2023-04-15T07:59:28;8.10;;;3.97;;
46158;SDS011;31888;44.512;26.104;2023-04-15T08:01:56;5.85;;;3.55;;
46158;SDS011;31888;44.512;26.104;2023-04-15T08:04:22;5.80;;;3.13;;
46158;SDS011;31888;44.512;26.104;2023-04-15T08:06:48;7.40;;;3.50;;
46158;SDS011;31888;44.512;26.104;2023-04-15T08:09:15;6.40;;;3.13;;
46158;SDS011;31888;44.512;26.104;2023-04-15T08:11:40;6.40;;;3.28;;
46158;SDS011;31888;44.512;26.104;2023-04-15T08:14:06;6.82;;;3.50;;
46158;SDS011;31888;44.512;26.104;2023-04-15T08:16:33;7.45;;;3.65;;
46158;SDS011;31888;44.512;26.104;2023-04-15T08:19:00;7.15;;;4.18;;
46158;SDS011;31888;44.512;26.104;2023-04-15T08:21:26;10.82;;;3.40;;
46158;SDS011;31888;44.512;26.104;2023-04-15T08:23:53;5.45;;;3.53;;
46158;SDS011;31888;44.512;26.104;2023-04-15T08:26:19;10.60;;;3.05;;
46158;SDS011;31888;44.512;26.104;2023-04-15T08:28:45;5.93;;;3.28;;
46158;SDS011;31888;44.512;26.104;2023-04-15T08:31:12;7.30;;;3.33;;
46158;SDS011;31888;44.512;26.104;2023-04-15T08:33:40;10.48;;;3.40;;
46158;SDS011;31888;44.512;26.104;2023-04-15T08:36:06;10.63;;;4.07;;
46158;SDS011;31888;44.512;26.104;2023-04-15T08:38:32;13.05;;;3.15;;
46158;SDS011;31888;44.512;26.104;2023-04-15T08:40:59;9.18;;;3.75;;
46158;SDS011;31888;44.512;26.104;2023-04-15T08:43:27;8.63;;;3.03;;
46158;SDS011;31888;44.512;26.104;2023-04-15T08:45:58;8.25;;;3.45;;
46158;SDS011;31888;44.512;26.104;2023-04-15T08:48:25;5.93;;;2.33;;
46158;SDS011;31888;44.512;26.104;2023-04-15T08:50:55;5.47;;;2.17;;
46158;SDS011;31888;44.512;26.104;2023-04-15T08:53:21;6.10;;;2.63;;
46158;SDS011;31888;44.512;26.104;2023-04-15T08:55:50;6.97;;;3.95;;
46158;SDS011;31888;44.512;26.104;2023-04-15T08:58:18;6.05;;;3.00;;
46158;SDS011;31888;44.512;26.104;2023-04-15T09:00:43;4.85;;;3.00;;
46158;SDS011;31888;44.512;26.104;2023-04-15T09:03:11;8.57;;;2.92;;
46158;SDS011;31888;44.512;26.104;2023-04-15T09:05:37;6.38;;;3.08;;
46158;SDS011;31888;44.512;26.104;2023-04-15T09:08:05;5.55;;;3.05;;
46158;SDS011;31888;44.512;26.104;2023-04-15T09:10:31;4.90;;;2.80;;
46158;SDS011;31888;44.512;26.104;2023-04-15T09:12:57;8.05;;;3.17;;
46158;SDS011;31888;44.512;26.104;2023-04-15T09:15:24;6.05;;;3.03;;
46158;SDS011;31888;44.512;26.104;2023-04-15T09:17:50;5.50;;;2.10;;
46158;SDS011;31888;44.512;26.104;2023-04-15T09:20:15;5.95;;;2.20;;
46158;SDS011;31888;44.512;26.104;2023-04-15T09:22:45;5.05;;;2.28;;
46158;SDS011;31888;44.512;26.104;2023-04-15T09:27:58;7.70;;;2.47;;
46158;SDS011;31888;44.512;26.104;2023-04-15T09:30:25;3.67;;;2.38;;
46158;SDS011;31888;44.512;26.104;2023-04-15T09:32:52;3.92;;;2.13;;
46158;SDS011;31888;44.512;26.104;2023-04-15T09:35:20;7.18;;;2.33;;
46158;SDS011;31888;44.512;26.104;2023-04-15T09:37:46;5.95;;;2.22;;
46158;SDS011;31888;44.512;26.104;2023-04-15T09:40:12;4.15;;;2.10;;
46158;SDS011;31888;44.512;26.104;2023-04-15T09:45:09;4.65;;;2.45;;
46158;SDS011;31888;44.512;26.104;2023-04-15T09:47:35;4.97;;;2.58;;
46158;SDS011;31888;44.512;26.104;2023-04-15T09:50:01;4.57;;;2.40;;
46158;SDS011;31888;44.512;26.104;2023-04-15T09:52:27;6.10;;;2.15;;
46158;SDS011;31888;44.512;26.104;2023-04-15T09:54:53;5.53;;;2.28;;
46158;SDS011;31888;44.512;26.104;2023-04-15T09:57:21;7.60;;;2.47;;
46158;SDS011;31888;44.512;26.104;2023-04-15T09:59:47;8.13;;;2.58;;
46158;SDS011;31888;44.512;26.104;2023-04-15T10:02:14;6.15;;;2.50;;
46158;SDS011;31888;44.512;26.104;2023-04-15T10:04:42;5.20;;;2.20;;
46158;SDS011;31888;44.512;26.104;2023-04-15T10:07:11;5.60;;;1.85;;
46158;SDS011;31888;44.512;26.104;2023-04-15T10:09:37;4.05;;;2.15;;
46158;SDS011;31888;44.512;26.104;2023-04-15T10:12:03;4.65;;;2.28;;
46158;SDS011;31888;44.512;26.104;2023-04-15T10:14:30;6.05;;;2.60;;
46158;SDS011;31888;44.512;26.104;2023-04-15T10:16:58;2.92;;;1.52;;
46158;SDS011;31888;44.512;26.104;2023-04-15T10:19:27;8.35;;;2.20;;
46158;SDS011;31888;44.512;26.104;2023-04-15T10:21:57;3.30;;;1.58;;
46158;SDS011;31888;44.512;26.104;2023-04-15T10:24:24;7.53;;;2.45;;
46158;SDS011;31888;44.512;26.104;2023-04-15T10:26:50;2.88;;;1.60;;
46158;SDS011;31888;44.512;26.104;2023-04-15T10:29:16;4.03;;;1.45;;
46158;SDS011;31888;44.512;26.104;2023-04-15T10:31:42;4.18;;;1.73;;
46158;SDS011;31888;44.512;26.104;2023-04-15T10:34:08;3.05;;;1.27;;
46158;SDS011;31888;44.512;26.104;2023-04-15T10:36:36;6.03;;;1.52;;
46158;SDS011;31888;44.512;26.104;2023-04-15T10:39:03;4.55;;;2.00;;
46158;SDS011;31888;44.512;26.104;2023-04-15T10:42:06;4.68;;;1.73;;
46158;SDS011;31888;44.512;26.104;2023-04-15T10:44:32;5.35;;;1.67;;
46158;SDS011;31888;44.512;26.104;2023-04-15T10:46:57;4.13;;;1.85;;
46158;SDS011;31888;44.512;26.104;2023-04-15T10:49:24;3.95;;;1.55;;
46158;SDS011;31888;44.512;26.104;2023-04-15T10:51:52;4.03;;;1.60;;
46158;SDS011;31888;44.512;26.104;2023-04-15T10:54:29;3.33;;;1.67;;
46158;SDS011;31888;44.512;26.104;2023-04-15T10:57:06;6.50;;;2.00;;
46158;SDS011;31888;44.512;26.104;2023-04-15T10:59:38;3.07;;;2.07;;
46158;SDS011;31888;44.512;26.104;2023-04-15T11:02:32;8.48;;;2.30;;
46158;SDS011;31888;44.512;26.104;2023-04-15T11:05:04;2.95;;;2.00;;
46158;SDS011;31888;44.512;26.104;2023-04-15T11:07:36;6.85;;;2.45;;
46158;SDS011;31888;44.512;26.104;2023-04-15T11:10:05;4.85;;;2.03;;
46158;SDS011;31888;44.512;26.104;2023-04-15T11:13:22;4.72;;;2.63;;
46158;SDS011;31888;44.512;26.104;2023-04-15T11:15:56;4.57;;;2.83;;
46158;SDS011;31888;44.512;26.104;2023-04-15T11:18:27;6.95;;;2.40;;
46158;SDS011;31888;44.512;26.104;2023-04-15T11:20:54;3.80;;;2.08;;
46158;SDS011;31888;44.512;26.104;2023-04-15T11:23:33;6.95;;;2.08;;
46158;SDS011;31888;44.512;26.104;2023-04-15T11:26:01;6.67;;;2.30;;
46158;SDS011;31888;44.512;26.104;2023-04-15T11:28:32;7.28;;;1.88;;
46158;SDS011;31888;44.512;26.104;2023-04-15T11:31:04;3.67;;;1.85;;
46158;SDS011;31888;44.512;26.104;2023-04-15T11:33:33;6.10;;;2.13;;
46158;SDS011;31888;44.512;26.104;2023-04-15T11:35:59;3.63;;;1.90;;
46158;SDS011;31888;44.512;26.104;2023-04-15T11:38:26;2.65;;;1.50;;
46158;SDS011;31888;44.512;26.104;2023-04-15T11:40:53;5.65;;;1.73;;
46158;SDS011;31888;44.512;26.104;2023-04-15T11:43:20;3.80;;;1.58;;
46158;SDS011;31888;44.512;26.104;2023-04-15T11:45:51;3.30;;;1.67;;
46158;SDS011;31888;44.512;26.104;2023-04-15T11:48:18;4.35;;;1.90;;
46158;SDS011;31888;44.512;26.104;2023-04-15T11:50:44;4.03;;;1.90;;
46158;SDS011;31888;44.512;26.104;2023-04-15T11:53:12;6.43;;;1.88;;
46158;SDS011;31888;44.512;26.104;2023-04-15T11:55:41;6.65;;;1.50;;
46158;SDS011;31888;44.512;26.104;2023-04-15T11:58:10;5.88;;;2.03;;
46158;SDS011;31888;44.512;26.104;2023-04-15T12:00:38;6.72;;;2.03;;
46158;SDS011;31888;44.512;26.104;2023-04-15T12:03:13;6.43;;;1.75;;
46158;SDS011;31888;44.512;26.104;2023-04-15T12:11:12;2.97;;;1.40;;
46158;SDS011;31888;44.512;26.104;2023-04-15T12:13:38;2.83;;;1.55;;
46158;SDS011;31888;44.512;26.104;2023-04-15T12:16:07;3.40;;;1.63;;
46158;SDS011;31888;44.512;26.104;2023-04-15T12:18:32;2.40;;;1.48;;
46158;SDS011;31888;44.512;26.104;2023-04-15T12:21:04;3.35;;;1.63;;
46158;SDS011;31888;44.512;26.104;2023-04-15T12:23:35;5.80;;;1.90;;
46158;SDS011;31888;44.512;26.104;2023-04-15T12:26:03;4.55;;;1.80;;
46158;SDS011;31888;44.512;26.104;2023-04-15T12:28:29;4.70;;;1.50;;
46158;SDS011;31888;44.512;26.104;2023-04-15T12:30:56;5.13;;;1.27;;
46158;SDS011;31888;44.512;26.104;2023-04-15T12:33:21;4.72;;;1.52;;
46158;SDS011;31888;44.512;26.104;2023-04-15T12:35:45;7.55;;;1.58;;
46158;SDS011;31888;44.512;26.104;2023-04-15T12:38:10;6.85;;;1.63;;
46158;SDS011;31888;44.512;26.104;2023-04-15T12:40:35;4.03;;;1.45;;
46158;SDS011;31888;44.512;26.104;2023-04-15T12:42:59;5.18;;;1.63;;
46158;SDS011;31888;44.512;26.104;2023-04-15T12:45:24;1.95;;;1.15;;
46158;SDS011;31888;44.512;26.104;2023-04-15T12:47:53;3.33;;;1.63;;
46158;SDS011;31888;44.512;26.104;2023-04-15T12:50:17;5.85;;;1.40;;
46158;SDS011;31888;44.512;26.104;2023-04-15T12:52:42;2.08;;;1.00;;
46158;SDS011;31888;44.512;26.104;2023-04-15T12:55:06;2.28;;;1.10;;
46158;SDS011;31888;44.512;26.104;2023-04-15T12:57:31;2.35;;;1.40;;
46158;SDS011;31888;44.512;26.104;2023-04-15T12:59:56;3.00;;;1.33;;
46158;SDS011;31888;44.512;26.104;2023-04-15T13:02:21;2.67;;;1.30;;
46158;SDS011;31888;44.512;26.104;2023-04-15T13:04:48;3.88;;;1.25;;
46158;SDS011;31888;44.512;26.104;2023-04-15T13:07:14;5.18;;;1.42;;
46158;SDS011;31888;44.512;26.104;2023-04-15T13:09:38;5.53;;;1.75;;
46158;SDS011;31888;44.512;26.104;2023-04-15T13:12:03;4.35;;;1.50;;
46158;SDS011;31888;44.512;26.104;2023-04-15T13:14:27;3.90;;;1.45;;
46158;SDS011;31888;44.512;26.104;2023-04-15T13:16:52;4.43;;;1.08;;
46158;SDS011;31888;44.512;26.104;2023-04-15T13:19:17;3.47;;;1.23;;
46158;SDS011;31888;44.512;26.104;2023-04-15T13:21:45;4.65;;;1.30;;
46158;SDS011;31888;44.512;26.104;2023-04-15T13:24:11;5.25;;;1.42;;
46158;SDS011;31888;44.512;26.104;2023-04-15T13:26:35;5.13;;;1.35;;
46158;SDS011;31888;44.512;26.104;2023-04-15T13:29:00;4.95;;;1.40;;
46158;SDS011;31888;44.512;26.104;2023-04-15T13:31:25;4.07;;;1.00;;
46158;SDS011;31888;44.512;26.104;2023-04-15T13:33:49;8.40;;;1.55;;
46158;SDS011;31888;44.512;26.104;2023-04-15T13:36:14;3.08;;;1.10;;
46158;SDS011;31888;44.512;26.104;2023-04-15T13:38:40;3.78;;;2.38;;
46158;SDS011;31888;44.512;26.104;2023-04-15T13:41:04;3.05;;;1.08;;
46158;SDS011;31888;44.512;26.104;2023-04-15T13:43:29;4.75;;;1.30;;
46158;SDS011;31888;44.512;26.104;2023-04-15T13:46:07;3.25;;;0.98;;
46158;SDS011;31888;44.512;26.104;2023-04-15T13:48:33;1.83;;;1.00;;
46158;SDS011;31888;44.512;26.104;2023-04-15T13:50:57;3.28;;;1.20;;
46158;SDS011;31888;44.512;26.104;2023-04-15T13:53:22;1.77;;;1.00;;
46158;SDS011;31888;44.512;26.104;2023-04-15T13:56:01;4.18;;;1.00;;
46158;SDS011;31888;44.512;26.104;2023-04-15T13:58:26;2.78;;;1.20;;
46158;SDS011;31888;44.512;26.104;2023-04-15T14:00:50;1.67;;;0.80;;
46158;SDS011;31888;44.512;26.104;2023-04-15T14:03:15;3.03;;;1.40;;
46158;SDS011;31888;44.512;26.104;2023-04-15T14:05:40;4.55;;;1.10;;
46158;SDS011;31888;44.512;26.104;2023-04-15T14:08:05;4.43;;;1.35;;
46158;SDS011;31888;44.512;26.104;2023-04-15T14:10:30;2.33;;;1.00;;
46158;SDS011;31888;44.512;26.104;2023-04-15T14:12:59;7.63;;;1.20;;
46158;SDS011;31888;44.512;26.104;2023-04-15T14:15:23;4.43;;;1.60;;
46158;SDS011;31888;44.512;26.104;2023-04-15T14:17:48;4.03;;;1.17;;
46158;SDS011;31888;44.512;26.104;2023-04-15T14:20:16;6.03;;;1.58;;
46158;SDS011;31888;44.512;26.104;2023-04-15T14:22:40;2.10;;;1.00;;
46158;SDS011;31888;44.512;26.104;2023-04-15T14:25:05;3.45;;;1.40;;
46158;SDS011;31888;44.512;26.104;2023-04-15T14:27:33;2.70;;;0.95;;
46158;SDS011;31888;44.512;26.104;2023-04-15T14:29:59;5.22;;;0.90;;
46158;SDS011;31888;44.512;26.104;2023-04-15T14:32:26;2.53;;;1.20;;
46158;SDS011;31888;44.512;26.104;2023-04-15T14:34:50;3.67;;;1.08;;
46158;SDS011;31888;44.512;26.104;2023-04-15T14:37:15;3.53;;;1.40;;
46158;SDS011;31888;44.512;26.104;2023-04-15T14:39:40;2.28;;;1.10;;
46158;SDS011;31888;44.512;26.104;2023-04-15T14:42:04;3.00;;;1.55;;
46158;SDS011;31888;44.512;26.104;2023-04-15T14:44:29;2.95;;;1.20;;